createdAt,value
2023-04-25T00:02:06.904Z,1.75
2023-04-25T00:06:27.855Z,1.13
2023-04-25T00:10:45.486Z,2.05
2023-04-25T00:15:03.541Z,0.63
2023-04-25T00:19:21.995Z,2.35
2023-04-25T00:23:40.194Z,1.50
2023-04-25T00:27:57.749Z,1.20
2023-04-25T00:32:15.666Z,1.42
2023-04-25T00:36:33.448Z,1.35
2023-04-25T00:40:51.532Z,1.48
2023-04-25T00:45:13.816Z,0.93
2023-04-25T00:49:31.412Z,1.00
2023-04-25T00:53:51.545Z,2.25
2023-04-25T00:58:09.694Z,2.65
2023-04-25T01:02:28.387Z,2.53
2023-04-25T01:06:47.197Z,2.03
2023-04-25T01:11:05.681Z,2.08
2023-04-25T01:15:23.420Z,1.80
2023-04-25T01:19:41.065Z,1.98
2023-04-25T01:23:59.008Z,2.13
2023-04-25T01:28:17.248Z,1.98
2023-04-25T01:32:39.690Z,2.65
2023-04-25T01:36:57.307Z,1.45
2023-04-25T01:41:15.990Z,1.50
2023-04-25T01:45:34.317Z,1.60
2023-04-25T01:49:52.156Z,1.75
2023-04-25T01:54:11.250Z,1.63
2023-04-25T01:58:29.286Z,2.00
2023-04-25T02:02:46.964Z,2.47
2023-04-25T02:07:06.620Z,3.17
2023-04-25T02:11:24.246Z,2.42
2023-04-25T02:15:42.577Z,2.95
2023-04-25T02:20:00.782Z,5.90
2023-04-25T02:24:18.826Z,2.88
2023-04-25T02:28:36.322Z,3.75
2023-04-25T02:32:54.179Z,3.30
2023-04-25T02:37:12.213Z,2.22
2023-04-25T02:45:47.731Z,2.63
2023-04-25T02:50:06.122Z,3.28
2023-04-25T02:54:23.807Z,3.30
2023-04-25T02:58:41.522Z,3.45
2023-04-25T03:02:59.336Z,4.00
2023-04-25T03:07:16.918Z,4.28
2023-04-25T03:11:34.556Z,2.75
2023-04-25T03:15:52.338Z,5.93
2023-04-25T03:20:11.653Z,2.95
2023-04-25T03:24:29.599Z,3.65
2023-04-25T03:28:47.165Z,2.55
2023-04-25T03:33:05.086Z,2.65
2023-04-25T03:37:22.648Z,2.80
2023-04-25T03:41:40.386Z,3.20
2023-04-25T03:45:58.386Z,3.30
2023-04-25T03:54:33.698Z,4.03
2023-04-25T03:58:51.317Z,3.70
2023-04-25T04:03:09.180Z,4.53
2023-04-25T04:11:44.876Z,2.85
2023-04-25T04:16:02.745Z,2.17
2023-04-25T04:20:20.588Z,1.80
2023-04-25T04:24:38.159Z,2.78
2023-04-25T04:28:56.328Z,3.20
2023-04-25T04:33:15.054Z,3.22
2023-04-25T04:37:32.601Z,2.13
2023-04-25T04:41:50.327Z,1.60
2023-04-25T04:46:07.923Z,3.05
2023-04-25T04:50:25.588Z,1.67
2023-04-25T04:54:43.156Z,2.45
2023-04-25T04:59:01.178Z,1.05
2023-04-25T05:03:18.759Z,1.95
2023-04-25T05:07:37.768Z,1.52
2023-04-25T05:11:55.292Z,2.20
2023-04-25T05:16:13.996Z,2.90
2023-04-25T05:20:31.703Z,1.75
2023-04-25T05:24:49.934Z,1.67
2023-04-25T05:33:25.064Z,3.58
2023-04-25T05:37:42.578Z,1.88
2023-04-25T05:42:00.297Z,2.22
2023-04-25T05:46:18.385Z,2.95
2023-04-25T05:50:36.478Z,3.22
2023-04-25T05:59:11.767Z,3.78
2023-04-25T06:03:29.841Z,1.70
2023-04-25T06:07:47.575Z,2.72
2023-04-25T06:12:05.478Z,3.70
2023-04-25T06:16:22.741Z,3.50
2023-04-25T06:20:40.910Z,2.70
2023-04-25T06:25:00.327Z,4.88
2023-04-25T06:29:17.864Z,2.15
2023-04-25T06:33:35.624Z,1.58
2023-04-25T06:37:53.199Z,3.10
2023-04-25T06:42:11.333Z,4.43
2023-04-25T06:46:29.015Z,2.58
2023-04-25T06:50:46.842Z,2.25
2023-04-25T06:55:06.118Z,5.95
2023-04-25T06:59:23.946Z,3.45
2023-04-25T07:03:41.721Z,3.38
2023-04-25T07:07:59.707Z,2.55
2023-04-25T07:12:17.191Z,2.30
2023-04-25T07:16:34.941Z,3.85
2023-04-25T07:20:52.601Z,4.88
2023-04-25T07:25:11.036Z,4.80
2023-04-25T07:29:31.167Z,2.22
2023-04-25T07:33:48.939Z,3.70
2023-04-25T07:38:07.881Z,3.92
2023-04-25T07:42:25.854Z,5.15
2023-04-25T07:46:46.197Z,4.43
2023-04-25T07:51:06.021Z,6.60
2023-04-25T07:55:26.056Z,4.03
2023-04-25T07:59:43.983Z,7.03
2023-04-25T08:08:19.540Z,2.22
2023-04-25T08:12:37.108Z,2.40
2023-04-25T08:16:55.035Z,3.60
2023-04-25T08:21:13.481Z,3.42
2023-04-25T08:25:31.397Z,3.60
2023-04-25T08:29:49.058Z,4.93
2023-04-25T08:34:07.226Z,2.90
2023-04-25T08:38:24.785Z,3.78
2023-04-25T08:42:46.784Z,6.28
2023-04-25T08:47:06.345Z,3.95
2023-04-25T08:51:29.402Z,4.68
2023-04-25T08:55:47.976Z,6.55
2023-04-25T09:00:09.567Z,3.28
2023-04-25T09:04:27.296Z,2.40
2023-04-25T09:08:46.931Z,4.00
2023-04-25T09:13:13.737Z,2.33
2023-04-25T09:17:31.704Z,3.43
2023-04-25T09:21:54.736Z,3.08
2023-04-25T09:26:19.717Z,3.75
2023-04-25T09:30:38.140Z,2.38
2023-04-25T09:34:57.994Z,5.40
2023-04-25T09:39:16.635Z,3.90
2023-04-25T09:43:34.525Z,4.18
2023-04-25T09:47:57.543Z,2.60
2023-04-25T09:52:18.897Z,2.65
2023-04-25T09:56:38.852Z,4.22
2023-04-25T10:01:03.094Z,3.85
2023-04-25T10:05:21.297Z,4.28
2023-04-25T10:09:42.122Z,4.70
2023-04-25T10:14:01.999Z,7.22
2023-04-25T10:18:21.164Z,3.35
2023-04-25T10:22:45.460Z,2.95
2023-04-25T10:27:03.920Z,5.40
2023-04-25T10:31:21.710Z,2.50
2023-04-25T10:35:39.735Z,2.15
2023-04-25T10:39:57.929Z,5.70
2023-04-25T10:44:16.527Z,6.18
2023-04-25T10:48:36.081Z,7.57
2023-04-25T10:52:54.993Z,2.03
2023-04-25T10:57:38.393Z,3.60
2023-04-25T11:01:57.478Z,3.97
2023-04-25T11:06:30.875Z,2.83
2023-04-25T11:10:50.313Z,1.58
2023-04-25T11:15:10.004Z,4.40
2023-04-25T11:19:29.370Z,1.90
2023-04-25T11:23:47.585Z,3.75
2023-04-25T11:28:05.653Z,2.15
2023-04-25T11:32:24.202Z,1.80
2023-04-25T11:36:42.555Z,3.67
2023-04-25T11:41:00.187Z,4.05
2023-04-25T11:45:20.007Z,1.67
2023-04-25T11:49:37.410Z,1.08
2023-04-25T11:53:55.113Z,1.10
2023-04-25T11:58:14.756Z,1.38
2023-04-25T12:02:33.100Z,2.45
2023-04-25T12:06:55.342Z,1.23
2023-04-25T12:11:23.235Z,1.73
2023-04-25T12:15:42.220Z,4.35
2023-04-25T12:20:00.146Z,1.35
2023-04-25T12:24:24.654Z,2.28
2023-04-25T12:28:48.560Z,2.92
2023-04-25T12:33:06.296Z,5.25
2023-04-25T12:37:24.110Z,2.25
2023-04-25T12:41:41.684Z,4.40
2023-04-25T12:45:59.424Z,2.00
2023-04-25T12:50:17.364Z,4.65
2023-04-25T12:54:35.592Z,4.07
2023-04-25T12:58:53.726Z,3.15
2023-04-25T13:03:13.158Z,3.40
2023-04-25T13:07:31.732Z,6.50
2023-04-25T13:11:50.259Z,2.17
2023-04-25T13:16:09.594Z,3.05
2023-04-25T13:20:27.399Z,3.35
2023-04-25T13:24:45.124Z,4.00
2023-04-25T13:29:04.850Z,2.92
2023-04-25T13:33:22.867Z,5.65
2023-04-25T13:37:41.584Z,6.22
2023-04-25T13:41:59.319Z,4.38
2023-04-25T13:46:35.313Z,6.82
2023-04-25T13:55:13.012Z,5.23
2023-04-25T13:59:30.663Z,8.13
2023-04-25T14:03:48.391Z,4.25
2023-04-25T14:08:08.387Z,3.10
2023-04-25T14:12:26.657Z,4.45
2023-04-25T14:21:01.931Z,2.58
2023-04-25T14:25:19.643Z,4.50
2023-04-25T14:29:39.517Z,2.92
2023-04-25T14:33:59.279Z,4.28
2023-04-25T14:38:17.379Z,4.38
2023-04-25T14:42:35.767Z,4.22
2023-04-25T14:46:53.387Z,4.25
2023-04-25T14:51:11.668Z,3.60
2023-04-25T14:55:29.766Z,4.05
2023-04-25T15:04:05.553Z,5.03
2023-04-25T15:08:23.366Z,3.15
2023-04-25T15:12:41.740Z,3.90
2023-04-25T15:16:59.268Z,4.00
2023-04-25T15:21:16.987Z,9.73
2023-04-25T15:25:34.662Z,4.88
2023-04-25T15:29:52.514Z,4.70
2023-04-25T15:34:10.372Z,10.27
2023-04-25T15:38:27.996Z,6.78
2023-04-25T15:42:48.288Z,7.65
2023-04-25T15:47:05.978Z,14.55
2023-04-25T15:51:23.796Z,6.18
2023-04-25T15:55:41.432Z,7.70
2023-04-25T15:59:59.133Z,4.50
2023-04-25T16:04:17.305Z,6.68
2023-04-25T16:08:36.239Z,3.55
2023-04-25T16:12:53.908Z,1.80
2023-04-25T16:17:11.662Z,9.35
2023-04-25T16:21:29.023Z,4.13
2023-04-25T16:25:46.863Z,3.83
2023-04-25T16:30:10.399Z,8.13
2023-04-25T16:34:28.195Z,10.48
2023-04-25T16:38:45.957Z,4.00
2023-04-25T16:43:03.807Z,4.50
2023-04-25T16:47:21.480Z,5.45
2023-04-25T16:51:39.292Z,3.38
2023-04-25T16:55:56.877Z,9.65
2023-04-25T17:00:15.692Z,6.93
2023-04-25T17:04:33.369Z,4.78
2023-04-25T17:08:51.814Z,5.47
2023-04-25T17:13:09.676Z,4.80
2023-04-25T17:17:27.998Z,6.05
2023-04-25T17:21:45.893Z,9.02
2023-04-25T17:26:03.649Z,3.75
2023-04-25T17:30:21.475Z,10.63
2023-04-25T17:34:40.405Z,7.80
2023-04-25T17:38:58.318Z,5.03
2023-04-25T17:43:16.546Z,9.45
2023-04-25T17:47:34.611Z,15.45
2023-04-25T17:56:25.344Z,4.45
2023-04-25T18:00:44.048Z,6.82
2023-04-25T18:05:01.856Z,7.80
2023-04-25T18:09:23.577Z,13.27
2023-04-25T18:13:41.869Z,19.45
2023-04-25T18:17:59.467Z,14.45
2023-04-25T18:26:36.548Z,8.45
2023-04-25T18:30:54.574Z,7.05
2023-04-25T18:35:13.234Z,7.13
2023-04-25T18:39:30.845Z,13.35
2023-04-25T18:43:49.678Z,20.77
2023-04-25T18:48:08.155Z,15.30
2023-04-25T18:52:26.482Z,13.73
2023-04-25T18:56:44.331Z,18.73
2023-04-25T19:01:02.098Z,16.58
2023-04-25T19:05:19.879Z,15.88
2023-04-25T19:09:37.592Z,9.40
2023-04-25T19:13:57.109Z,12.05
2023-04-25T19:18:15.098Z,9.25
2023-04-25T19:22:36.961Z,23.33
2023-04-25T19:26:54.525Z,26.52
2023-04-25T19:31:16.202Z,14.18
2023-04-25T19:35:34.327Z,13.82
2023-04-25T19:44:10.097Z,12.50
2023-04-25T19:48:30.346Z,15.23
2023-04-25T19:52:47.449Z,14.03
2023-04-25T19:57:05.127Z,12.77
2023-04-25T20:01:22.828Z,11.38
2023-04-25T20:05:40.598Z,11.75
2023-04-25T20:09:58.198Z,8.98
2023-04-25T20:14:15.907Z,11.73
2023-04-25T20:18:33.481Z,10.00
2023-04-25T20:22:52.346Z,12.68
2023-04-25T20:27:09.954Z,7.43
2023-04-25T20:31:28.054Z,11.55
2023-04-25T20:35:46.483Z,8.98
2023-04-25T20:40:08.470Z,16.00
2023-04-25T20:44:25.986Z,15.98
2023-04-25T20:48:44.009Z,14.20
2023-04-25T20:53:01.648Z,13.23
2023-04-25T20:57:19.694Z,10.52
2023-04-25T21:01:37.452Z,14.05
2023-04-25T21:05:55.199Z,10.82
2023-04-25T21:10:14.240Z,10.10
2023-04-25T21:14:31.847Z,6.65
2023-04-25T21:18:49.755Z,8.38
2023-04-25T21:23:07.394Z,6.30
2023-04-25T21:27:26.153Z,6.90
2023-04-25T21:31:43.862Z,3.63
2023-04-25T21:36:01.587Z,7.72
2023-04-25T21:40:19.891Z,6.03
2023-04-25T21:44:37.788Z,5.57
2023-04-25T21:48:56.041Z,6.80
2023-04-25T21:53:13.751Z,8.15
2023-04-25T21:57:31.680Z,4.93
2023-04-25T22:01:49.310Z,6.72
2023-04-25T22:06:07.428Z,4.93
2023-04-25T22:10:25.419Z,5.63
2023-04-25T22:14:45.023Z,4.60
2023-04-25T22:19:02.638Z,3.28
2023-04-25T22:23:20.399Z,4.68
2023-04-25T22:27:41.026Z,4.00
2023-04-25T22:31:59.003Z,6.10
2023-04-25T22:36:18.052Z,6.50
2023-04-25T22:40:36.108Z,7.88
2023-04-25T22:44:54.144Z,4.50
2023-04-25T22:49:12.358Z,4.47
2023-04-25T22:53:31.442Z,5.72
2023-04-25T22:57:49.221Z,8.20
2023-04-25T23:02:07.658Z,8.10
2023-04-25T23:06:25.705Z,3.78
2023-04-25T23:10:44.207Z,4.35
2023-04-25T23:15:03.963Z,5.32
2023-04-25T23:19:22.093Z,4.50
2023-04-25T23:23:40.223Z,6.53
2023-04-25T23:32:15.474Z,7.43
2023-04-25T23:36:33.223Z,6.43
2023-04-25T23:40:51.827Z,4.10
2023-04-25T23:45:10.013Z,7.90
2023-04-25T23:53:46.906Z,4.30
2023-04-25T23:58:04.492Z,3.78
